sensor_id;sensor_type;location;lat;lon;timestamp;P1;durP1;ratioP1;P2;durP2;ratioP2
11481;SDS011;5797;51.662;6.748;2022-09-12T00:00:31;9.03;;;6.87;;
11481;SDS011;5797;51.662;6.748;2022-09-12T00:02:59;10.07;;;7.23;;
11481;SDS011;5797;51.662;6.748;2022-09-12T00:05:27;10.17;;;6.70;;
11481;SDS011;5797;51.662;6.748;2022-09-12T00:07:56;8.03;;;6.03;;
11481;SDS011;5797;51.662;6.748;2022-09-12T00:10:24;11.20;;;6.57;;
11481;SDS011;5797;51.662;6.748;2022-09-12T00:12:52;6.33;;;5.33;;
11481;SDS011;5797;51.662;6.748;2022-09-12T00:15:20;12.33;;;5.57;;
11481;SDS011;5797;51.662;6.748;2022-09-12T00:17:49;9.07;;;5.87;;
11481;SDS011;5797;51.662;6.748;2022-09-12T00:20:17;8.57;;;6.23;;
11481;SDS011;5797;51.662;6.748;2022-09-12T00:22:45;8.00;;;6.40;;
11481;SDS011;5797;51.662;6.748;2022-09-12T00:25:13;9.87;;;6.00;;
11481;SDS011;5797;51.662;6.748;2022-09-12T00:27:41;8.73;;;6.17;;
11481;SDS011;5797;51.662;6.748;2022-09-12T00:30:10;8.40;;;6.37;;
11481;SDS011;5797;51.662;6.748;2022-09-12T00:32:38;8.47;;;5.30;;
11481;SDS011;5797;51.662;6.748;2022-09-12T00:35:08;6.80;;;5.20;;
11481;SDS011;5797;51.662;6.748;2022-09-12T00:37:36;7.97;;;5.37;;
11481;SDS011;5797;51.662;6.748;2022-09-12T00:40:04;7.57;;;5.80;;
11481;SDS011;5797;51.662;6.748;2022-09-12T00:42:33;7.27;;;5.73;;
11481;SDS011;5797;51.662;6.748;2022-09-12T00:45:01;11.63;;;6.97;;
11481;SDS011;5797;51.662;6.748;2022-09-12T00:47:29;8.93;;;7.03;;
11481;SDS011;5797;51.662;6.748;2022-09-12T00:49:59;13.50;;;8.57;;
11481;SDS011;5797;51.662;6.748;2022-09-12T00:52:33;11.23;;;7.73;;
11481;SDS011;5797;51.662;6.748;2022-09-12T00:55:04;11.57;;;7.90;;
11481;SDS011;5797;51.662;6.748;2022-09-12T00:57:36;10.43;;;7.60;;
11481;SDS011;5797;51.662;6.748;2022-09-12T01:00:08;14.10;;;8.13;;
11481;SDS011;5797;51.662;6.748;2022-09-12T01:02:44;14.47;;;7.70;;
11481;SDS011;5797;51.662;6.748;2022-09-12T01:05:13;15.80;;;9.23;;
11481;SDS011;5797;51.662;6.748;2022-09-12T01:07:43;10.67;;;8.13;;
11481;SDS011;5797;51.662;6.748;2022-09-12T01:10:13;11.70;;;7.87;;
11481;SDS011;5797;51.662;6.748;2022-09-12T01:12:42;11.93;;;8.23;;
11481;SDS011;5797;51.662;6.748;2022-09-12T01:15:10;10.73;;;8.70;;
11481;SDS011;5797;51.662;6.748;2022-09-12T01:17:41;14.83;;;9.03;;
11481;SDS011;5797;51.662;6.748;2022-09-12T01:20:28;15.03;;;8.87;;
11481;SDS011;5797;51.662;6.748;2022-09-12T01:29:25;14.13;;;8.13;;
11481;SDS011;5797;51.662;6.748;2022-09-12T01:32:04;12.10;;;7.20;;
11481;SDS011;5797;51.662;6.748;2022-09-12T01:34:37;9.87;;;7.60;;
11481;SDS011;5797;51.662;6.748;2022-09-12T01:37:12;10.13;;;7.23;;
11481;SDS011;5797;51.662;6.748;2022-09-12T01:39:43;13.60;;;7.93;;
11481;SDS011;5797;51.662;6.748;2022-09-12T01:42:18;11.03;;;7.27;;
11481;SDS011;5797;51.662;6.748;2022-09-12T01:44:52;12.37;;;7.60;;
11481;SDS011;5797;51.662;6.748;2022-09-12T01:47:26;13.93;;;7.90;;
11481;SDS011;5797;51.662;6.748;2022-09-12T01:49:59;10.67;;;8.17;;
11481;SDS011;5797;51.662;6.748;2022-09-12T01:52:29;12.73;;;7.87;;
11481;SDS011;5797;51.662;6.748;2022-09-12T01:55:00;11.17;;;8.27;;
11481;SDS011;5797;51.662;6.748;2022-09-12T01:57:36;11.23;;;8.17;;
11481;SDS011;5797;51.662;6.748;2022-09-12T02:00:08;11.10;;;7.80;;
11481;SDS011;5797;51.662;6.748;2022-09-12T02:02:42;9.00;;;7.00;;
11481;SDS011;5797;51.662;6.748;2022-09-12T02:05:19;15.50;;;8.70;;
11481;SDS011;5797;51.662;6.748;2022-09-12T02:07:50;12.67;;;8.30;;
11481;SDS011;5797;51.662;6.748;2022-09-12T02:10:21;12.47;;;7.77;;
11481;SDS011;5797;51.662;6.748;2022-09-12T02:12:54;12.57;;;8.80;;
11481;SDS011;5797;51.662;6.748;2022-09-12T02:15:25;12.03;;;8.50;;
11481;SDS011;5797;51.662;6.748;2022-09-12T02:17:57;11.47;;;7.30;;
11481;SDS011;5797;51.662;6.748;2022-09-12T02:20:28;11.93;;;7.47;;
11481;SDS011;5797;51.662;6.748;2022-09-12T02:23:13;12.37;;;7.20;;
11481;SDS011;5797;51.662;6.748;2022-09-12T02:25:44;7.33;;;5.67;;
11481;SDS011;5797;51.662;6.748;2022-09-12T02:28:14;9.20;;;6.80;;
11481;SDS011;5797;51.662;6.748;2022-09-12T02:30:44;7.60;;;5.87;;
11481;SDS011;5797;51.662;6.748;2022-09-12T02:33:21;9.27;;;5.93;;
11481;SDS011;5797;51.662;6.748;2022-09-12T02:35:52;11.90;;;6.33;;
11481;SDS011;5797;51.662;6.748;2022-09-12T02:38:27;7.77;;;6.07;;
11481;SDS011;5797;51.662;6.748;2022-09-12T02:40:59;9.47;;;6.87;;
11481;SDS011;5797;51.662;6.748;2022-09-12T02:43:27;12.80;;;6.87;;
11481;SDS011;5797;51.662;6.748;2022-09-12T02:45:56;12.47;;;7.47;;
11481;SDS011;5797;51.662;6.748;2022-09-12T02:48:26;10.13;;;6.97;;
11481;SDS011;5797;51.662;6.748;2022-09-12T02:50:55;10.57;;;7.37;;
11481;SDS011;5797;51.662;6.748;2022-09-12T02:53:24;9.90;;;7.00;;
11481;SDS011;5797;51.662;6.748;2022-09-12T02:55:53;9.53;;;6.83;;
11481;SDS011;5797;51.662;6.748;2022-09-12T02:58:22;9.77;;;7.20;;
11481;SDS011;5797;51.662;6.748;2022-09-12T03:00:58;10.07;;;7.27;;
11481;SDS011;5797;51.662;6.748;2022-09-12T03:03:37;9.53;;;7.20;;
11481;SDS011;5797;51.662;6.748;2022-09-12T03:06:15;8.40;;;6.83;;
11481;SDS011;5797;51.662;6.748;2022-09-12T03:08:56;9.60;;;6.63;;
11481;SDS011;5797;51.662;6.748;2022-09-12T03:11:41;8.03;;;6.00;;
11481;SDS011;5797;51.662;6.748;2022-09-12T03:17:28;9.40;;;6.50;;
11481;SDS011;5797;51.662;6.748;2022-09-12T03:20:08;10.10;;;7.00;;
11481;SDS011;5797;51.662;6.748;2022-09-12T03:22:38;9.13;;;6.47;;
11481;SDS011;5797;51.662;6.748;2022-09-12T03:25:16;8.47;;;6.57;;
11481;SDS011;5797;51.662;6.748;2022-09-12T03:27:50;10.70;;;6.40;;
11481;SDS011;5797;51.662;6.748;2022-09-12T03:30:22;8.13;;;5.67;;
11481;SDS011;5797;51.662;6.748;2022-09-12T03:32:50;6.70;;;5.53;;
11481;SDS011;5797;51.662;6.748;2022-09-12T03:35:21;9.67;;;6.00;;
11481;SDS011;5797;51.662;6.748;2022-09-12T03:37:50;10.03;;;6.80;;
11481;SDS011;5797;51.662;6.748;2022-09-12T03:40:19;7.87;;;5.83;;
11481;SDS011;5797;51.662;6.748;2022-09-12T03:42:47;8.30;;;6.33;;
11481;SDS011;5797;51.662;6.748;2022-09-12T03:45:15;11.07;;;6.40;;
11481;SDS011;5797;51.662;6.748;2022-09-12T03:47:43;9.07;;;6.40;;
11481;SDS011;5797;51.662;6.748;2022-09-12T03:50:11;13.40;;;7.13;;
11481;SDS011;5797;51.662;6.748;2022-09-12T03:52:40;10.93;;;7.90;;
11481;SDS011;5797;51.662;6.748;2022-09-12T03:55:08;15.10;;;8.23;;
11481;SDS011;5797;51.662;6.748;2022-09-12T03:57:37;11.27;;;7.57;;
11481;SDS011;5797;51.662;6.748;2022-09-12T04:00:06;12.33;;;7.83;;
11481;SDS011;5797;51.662;6.748;2022-09-12T04:02:38;11.23;;;7.37;;
11481;SDS011;5797;51.662;6.748;2022-09-12T04:05:06;15.30;;;7.67;;
11481;SDS011;5797;51.662;6.748;2022-09-12T04:07:34;10.80;;;7.50;;
11481;SDS011;5797;51.662;6.748;2022-09-12T04:10:03;12.00;;;7.67;;
11481;SDS011;5797;51.662;6.748;2022-09-12T04:12:32;10.40;;;8.03;;
11481;SDS011;5797;51.662;6.748;2022-09-12T04:15:00;11.47;;;8.10;;
11481;SDS011;5797;51.662;6.748;2022-09-12T04:17:28;14.70;;;8.60;;
11481;SDS011;5797;51.662;6.748;2022-09-12T04:19:56;12.50;;;7.93;;
11481;SDS011;5797;51.662;6.748;2022-09-12T04:22:24;13.57;;;7.63;;
11481;SDS011;5797;51.662;6.748;2022-09-12T04:24:53;11.37;;;7.67;;
11481;SDS011;5797;51.662;6.748;2022-09-12T04:27:22;13.00;;;7.67;;
11481;SDS011;5797;51.662;6.748;2022-09-12T04:29:50;13.60;;;7.80;;
11481;SDS011;5797;51.662;6.748;2022-09-12T04:32:19;14.40;;;8.13;;
11481;SDS011;5797;51.662;6.748;2022-09-12T04:34:47;12.70;;;7.93;;
11481;SDS011;5797;51.662;6.748;2022-09-12T04:37:17;11.63;;;8.43;;
11481;SDS011;5797;51.662;6.748;2022-09-12T04:39:45;15.33;;;8.50;;
11481;SDS011;5797;51.662;6.748;2022-09-12T04:42:14;14.70;;;8.70;;
11481;SDS011;5797;51.662;6.748;2022-09-12T04:44:43;13.67;;;8.93;;
11481;SDS011;5797;51.662;6.748;2022-09-12T04:47:11;13.53;;;8.87;;
11481;SDS011;5797;51.662;6.748;2022-09-12T04:49:39;16.50;;;9.30;;
11481;SDS011;5797;51.662;6.748;2022-09-12T04:52:07;14.20;;;8.60;;
11481;SDS011;5797;51.662;6.748;2022-09-12T04:54:35;14.33;;;8.57;;
11481;SDS011;5797;51.662;6.748;2022-09-12T04:57:03;11.87;;;8.23;;
11481;SDS011;5797;51.662;6.748;2022-09-12T04:59:31;11.83;;;7.57;;
11481;SDS011;5797;51.662;6.748;2022-09-12T05:02:00;13.63;;;8.63;;
11481;SDS011;5797;51.662;6.748;2022-09-12T05:04:29;14.13;;;9.27;;
11481;SDS011;5797;51.662;6.748;2022-09-12T05:06:57;16.03;;;9.60;;
11481;SDS011;5797;51.662;6.748;2022-09-12T05:09:25;17.17;;;10.50;;
11481;SDS011;5797;51.662;6.748;2022-09-12T05:11:54;14.93;;;10.07;;
11481;SDS011;5797;51.662;6.748;2022-09-12T05:14:29;17.90;;;11.17;;
11481;SDS011;5797;51.662;6.748;2022-09-12T05:16:57;15.23;;;10.23;;
11481;SDS011;5797;51.662;6.748;2022-09-12T05:19:29;17.87;;;10.60;;
11481;SDS011;5797;51.662;6.748;2022-09-12T05:21:57;17.23;;;11.77;;
11481;SDS011;5797;51.662;6.748;2022-09-12T05:24:26;17.40;;;10.13;;
11481;SDS011;5797;51.662;6.748;2022-09-12T05:26:54;16.03;;;10.43;;
11481;SDS011;5797;51.662;6.748;2022-09-12T05:29:22;19.73;;;11.40;;
11481;SDS011;5797;51.662;6.748;2022-09-12T05:31:50;26.60;;;12.67;;
11481;SDS011;5797;51.662;6.748;2022-09-12T05:34:18;17.10;;;11.30;;
11481;SDS011;5797;51.662;6.748;2022-09-12T05:36:48;26.77;;;12.07;;
11481;SDS011;5797;51.662;6.748;2022-09-12T05:39:16;19.53;;;12.30;;
11481;SDS011;5797;51.662;6.748;2022-09-12T05:41:43;19.13;;;12.10;;
11481;SDS011;5797;51.662;6.748;2022-09-12T05:44:13;21.13;;;12.57;;
11481;SDS011;5797;51.662;6.748;2022-09-12T05:46:41;20.47;;;13.10;;
11481;SDS011;5797;51.662;6.748;2022-09-12T05:49:11;24.00;;;12.53;;
11481;SDS011;5797;51.662;6.748;2022-09-12T05:51:40;20.10;;;12.27;;
11481;SDS011;5797;51.662;6.748;2022-09-12T05:54:11;27.47;;;12.93;;
11481;SDS011;5797;51.662;6.748;2022-09-12T05:56:40;23.60;;;13.97;;
11481;SDS011;5797;51.662;6.748;2022-09-12T05:59:10;23.83;;;15.30;;
11481;SDS011;5797;51.662;6.748;2022-09-12T06:01:39;24.80;;;14.07;;
11481;SDS011;5797;51.662;6.748;2022-09-12T06:04:07;27.60;;;14.67;;
11481;SDS011;5797;51.662;6.748;2022-09-12T06:06:36;26.20;;;14.60;;
11481;SDS011;5797;51.662;6.748;2022-09-12T06:09:07;27.97;;;14.80;;
11481;SDS011;5797;51.662;6.748;2022-09-12T06:11:37;27.63;;;15.33;;
11481;SDS011;5797;51.662;6.748;2022-09-12T06:14:07;26.30;;;14.17;;
11481;SDS011;5797;51.662;6.748;2022-09-12T06:16:36;26.53;;;14.27;;
11481;SDS011;5797;51.662;6.748;2022-09-12T06:19:06;25.50;;;14.83;;
11481;SDS011;5797;51.662;6.748;2022-09-12T06:21:34;27.10;;;14.43;;
11481;SDS011;5797;51.662;6.748;2022-09-12T06:24:03;27.37;;;16.17;;
11481;SDS011;5797;51.662;6.748;2022-09-12T06:26:31;26.73;;;15.10;;
11481;SDS011;5797;51.662;6.748;2022-09-12T06:29:00;29.10;;;16.03;;
11481;SDS011;5797;51.662;6.748;2022-09-12T06:31:29;29.57;;;16.93;;
11481;SDS011;5797;51.662;6.748;2022-09-12T06:33:58;28.13;;;15.77;;
11481;SDS011;5797;51.662;6.748;2022-09-12T06:36:28;27.07;;;14.93;;
11481;SDS011;5797;51.662;6.748;2022-09-12T06:38:58;25.20;;;16.43;;
11481;SDS011;5797;51.662;6.748;2022-09-12T06:41:27;23.93;;;15.33;;
11481;SDS011;5797;51.662;6.748;2022-09-12T06:43:56;23.60;;;14.50;;
11481;SDS011;5797;51.662;6.748;2022-09-12T06:46:26;26.27;;;14.60;;
11481;SDS011;5797;51.662;6.748;2022-09-12T06:48:54;25.97;;;15.57;;
11481;SDS011;5797;51.662;6.748;2022-09-12T06:51:22;29.07;;;14.40;;
11481;SDS011;5797;51.662;6.748;2022-09-12T06:53:50;24.30;;;15.60;;
11481;SDS011;5797;51.662;6.748;2022-09-12T06:56:21;23.67;;;15.50;;
11481;SDS011;5797;51.662;6.748;2022-09-12T06:58:50;27.67;;;15.67;;
11481;SDS011;5797;51.662;6.748;2022-09-12T07:01:20;26.30;;;15.53;;
11481;SDS011;5797;51.662;6.748;2022-09-12T07:03:51;30.57;;;17.00;;
11481;SDS011;5797;51.662;6.748;2022-09-12T07:06:21;24.40;;;15.10;;
11481;SDS011;5797;51.662;6.748;2022-09-12T07:08:51;25.47;;;16.17;;
11481;SDS011;5797;51.662;6.748;2022-09-12T07:11:20;29.93;;;16.10;;
11481;SDS011;5797;51.662;6.748;2022-09-12T07:13:49;30.23;;;15.67;;
11481;SDS011;5797;51.662;6.748;2022-09-12T07:16:18;29.97;;;16.47;;
11481;SDS011;5797;51.662;6.748;2022-09-12T07:18:53;25.90;;;16.13;;
11481;SDS011;5797;51.662;6.748;2022-09-12T07:21:21;29.13;;;16.50;;
11481;SDS011;5797;51.662;6.748;2022-09-12T07:23:49;28.67;;;16.63;;
11481;SDS011;5797;51.662;6.748;2022-09-12T07:26:20;29.40;;;17.07;;
11481;SDS011;5797;51.662;6.748;2022-09-12T07:28:49;31.20;;;16.73;;
11481;SDS011;5797;51.662;6.748;2022-09-12T07:31:19;31.47;;;17.43;;
11481;SDS011;5797;51.662;6.748;2022-09-12T07:33:48;26.33;;;16.20;;
11481;SDS011;5797;51.662;6.748;2022-09-12T07:36:22;26.20;;;17.10;;
11481;SDS011;5797;51.662;6.748;2022-09-12T07:38:54;28.67;;;17.43;;
11481;SDS011;5797;51.662;6.748;2022-09-12T07:41:23;29.83;;;16.63;;
11481;SDS011;5797;51.662;6.748;2022-09-12T07:43:53;32.27;;;17.63;;
11481;SDS011;5797;51.662;6.748;2022-09-12T07:46:22;28.23;;;16.20;;
11481;SDS011;5797;51.662;6.748;2022-09-12T07:48:51;27.37;;;16.47;;
11481;SDS011;5797;51.662;6.748;2022-09-12T07:51:21;28.70;;;16.03;;
11481;SDS011;5797;51.662;6.748;2022-09-12T07:53:49;24.23;;;15.37;;
11481;SDS011;5797;51.662;6.748;2022-09-12T07:56:18;27.00;;;15.90;;
11481;SDS011;5797;51.662;6.748;2022-09-12T07:58:47;25.67;;;16.30;;
11481;SDS011;5797;51.662;6.748;2022-09-12T08:01:15;26.80;;;16.67;;
11481;SDS011;5797;51.662;6.748;2022-09-12T08:03:45;26.43;;;15.37;;
11481;SDS011;5797;51.662;6.748;2022-09-12T08:06:14;28.50;;;16.23;;
11481;SDS011;5797;51.662;6.748;2022-09-12T08:08:46;24.33;;;15.10;;
11481;SDS011;5797;51.662;6.748;2022-09-12T08:11:17;26.97;;;16.73;;
11481;SDS011;5797;51.662;6.748;2022-09-12T08:13:45;24.03;;;15.73;;
11481;SDS011;5797;51.662;6.748;2022-09-12T08:16:18;25.13;;;16.33;;
11481;SDS011;5797;51.662;6.748;2022-09-12T08:18:47;26.93;;;18.10;;
11481;SDS011;5797;51.662;6.748;2022-09-12T08:21:16;26.63;;;17.00;;
11481;SDS011;5797;51.662;6.748;2022-09-12T08:23:47;29.57;;;17.37;;
11481;SDS011;5797;51.662;6.748;2022-09-12T08:26:18;26.07;;;17.10;;
11481;SDS011;5797;51.662;6.748;2022-09-12T08:28:47;31.80;;;18.57;;
11481;SDS011;5797;51.662;6.748;2022-09-12T08:31:16;28.37;;;18.10;;
11481;SDS011;5797;51.662;6.748;2022-09-12T08:33:46;34.00;;;19.60;;
11481;SDS011;5797;51.662;6.748;2022-09-12T08:36:14;37.37;;;20.27;;
11481;SDS011;5797;51.662;6.748;2022-09-12T08:38:44;34.40;;;21.00;;
11481;SDS011;5797;51.662;6.748;2022-09-12T08:41:17;37.73;;;21.20;;
11481;SDS011;5797;51.662;6.748;2022-09-12T08:44:00;35.43;;;19.77;;
11481;SDS011;5797;51.662;6.748;2022-09-12T08:46:37;32.97;;;19.77;;
11481;SDS011;5797;51.662;6.748;2022-09-12T08:49:14;30.23;;;18.53;;
11481;SDS011;5797;51.662;6.748;2022-09-12T08:51:50;35.90;;;20.43;;
11481;SDS011;5797;51.662;6.748;2022-09-12T08:54:19;39.43;;;19.47;;
11481;SDS011;5797;51.662;6.748;2022-09-12T08:56:51;30.83;;;18.67;;
11481;SDS011;5797;51.662;6.748;2022-09-12T08:59:21;32.03;;;18.57;;
11481;SDS011;5797;51.662;6.748;2022-09-12T09:01:50;31.80;;;18.70;;
11481;SDS011;5797;51.662;6.748;2022-09-12T09:04:27;34.40;;;18.87;;
11481;SDS011;5797;51.662;6.748;2022-09-12T09:07:05;33.47;;;17.73;;
11481;SDS011;5797;51.662;6.748;2022-09-12T09:09:45;27.37;;;18.03;;
11481;SDS011;5797;51.662;6.748;2022-09-12T09:12:24;34.10;;;18.07;;
11481;SDS011;5797;51.662;6.748;2022-09-12T09:15:06;31.90;;;16.67;;
11481;SDS011;5797;51.662;6.748;2022-09-12T09:17:47;31.50;;;18.30;;
11481;SDS011;5797;51.662;6.748;2022-09-12T09:20:20;26.87;;;16.53;;
11481;SDS011;5797;51.662;6.748;2022-09-12T09:22:54;33.80;;;17.63;;
11481;SDS011;5797;51.662;6.748;2022-09-12T09:25:24;33.67;;;17.83;;
11481;SDS011;5797;51.662;6.748;2022-09-12T09:28:05;24.47;;;16.87;;
11481;SDS011;5797;51.662;6.748;2022-09-12T09:30:39;24.13;;;15.90;;
11481;SDS011;5797;51.662;6.748;2022-09-12T09:33:12;27.77;;;17.30;;
11481;SDS011;5797;51.662;6.748;2022-09-12T09:35:45;28.23;;;16.83;;
11481;SDS011;5797;51.662;6.748;2022-09-12T09:38:17;29.23;;;15.10;;
11481;SDS011;5797;51.662;6.748;2022-09-12T09:40:52;34.73;;;15.77;;
11481;SDS011;5797;51.662;6.748;2022-09-12T09:43:28;24.60;;;15.07;;
11481;SDS011;5797;51.662;6.748;2022-09-12T09:45:56;22.20;;;13.90;;
11481;SDS011;5797;51.662;6.748;2022-09-12T09:48:26;24.00;;;14.43;;
11481;SDS011;5797;51.662;6.748;2022-09-12T09:50:56;25.63;;;14.77;;
11481;SDS011;5797;51.662;6.748;2022-09-12T09:53:27;23.47;;;13.67;;
11481;SDS011;5797;51.662;6.748;2022-09-12T09:56:00;19.43;;;12.53;;
11481;SDS011;5797;51.662;6.748;2022-09-12T09:58:35;22.53;;;12.10;;
11481;SDS011;5797;51.662;6.748;2022-09-12T10:01:04;20.47;;;12.97;;
11481;SDS011;5797;51.662;6.748;2022-09-12T10:03:36;20.17;;;12.70;;
11481;SDS011;5797;51.662;6.748;2022-09-12T10:06:05;23.07;;;12.13;;
11481;SDS011;5797;51.662;6.748;2022-09-12T10:08:35;22.63;;;12.83;;
11481;SDS011;5797;51.662;6.748;2022-09-12T10:11:05;22.30;;;12.77;;
11481;SDS011;5797;51.662;6.748;2022-09-12T10:13:51;16.37;;;11.10;;
11481;SDS011;5797;51.662;6.748;2022-09-12T10:16:20;18.03;;;11.90;;
11481;SDS011;5797;51.662;6.748;2022-09-12T10:18:50;17.30;;;11.77;;
11481;SDS011;5797;51.662;6.748;2022-09-12T10:21:24;18.65;;;9.57;;
11481;SDS011;5797;51.662;6.748;2022-09-12T10:23:58;13.95;;;8.45;;
11481;SDS011;5797;51.662;6.748;2022-09-12T10:26:32;14.85;;;8.82;;
11481;SDS011;5797;51.662;6.748;2022-09-12T10:29:04;19.33;;;10.05;;
11481;SDS011;5797;51.662;6.748;2022-09-12T10:31:42;15.27;;;9.40;;
11481;SDS011;5797;51.662;6.748;2022-09-12T10:34:20;12.82;;;9.48;;
11481;SDS011;5797;51.662;6.748;2022-09-12T10:36:51;14.57;;;9.90;;
11481;SDS011;5797;51.662;6.748;2022-09-12T10:39:21;13.82;;;8.55;;
11481;SDS011;5797;51.662;6.748;2022-09-12T10:41:49;11.02;;;8.57;;
11481;SDS011;5797;51.662;6.748;2022-09-12T10:44:23;15.55;;;8.65;;
11481;SDS011;5797;51.662;6.748;2022-09-12T10:46:52;12.15;;;7.57;;
11481;SDS011;5797;51.662;6.748;2022-09-12T10:49:22;12.95;;;7.50;;
11481;SDS011;5797;51.662;6.748;2022-09-12T10:51:55;14.32;;;8.75;;
11481;SDS011;5797;51.662;6.748;2022-09-12T10:54:26;13.00;;;8.57;;
11481;SDS011;5797;51.662;6.748;2022-09-12T10:57:07;9.48;;;6.97;;
11481;SDS011;5797;51.662;6.748;2022-09-12T10:59:50;9.40;;;7.15;;
11481;SDS011;5797;51.662;6.748;2022-09-12T11:02:26;10.75;;;6.47;;
11481;SDS011;5797;51.662;6.748;2022-09-12T11:04:58;9.45;;;6.45;;
11481;SDS011;5797;51.662;6.748;2022-09-12T11:07:36;11.27;;;6.72;;
11481;SDS011;5797;51.662;6.748;2022-09-12T11:10:14;14.50;;;6.97;;
11481;SDS011;5797;51.662;6.748;2022-09-12T11:12:50;8.00;;;5.75;;
11481;SDS011;5797;51.662;6.748;2022-09-12T11:15:33;9.73;;;5.63;;
11481;SDS011;5797;51.662;6.748;2022-09-12T11:18:09;7.28;;;5.50;;
11481;SDS011;5797;51.662;6.748;2022-09-12T11:20:50;7.88;;;5.13;;
11481;SDS011;5797;51.662;6.748;2022-09-12T11:26:24;7.22;;;5.35;;
11481;SDS011;5797;51.662;6.748;2022-09-12T11:29:00;5.05;;;4.18;;
11481;SDS011;5797;51.662;6.748;2022-09-12T11:31:50;6.00;;;4.38;;
11481;SDS011;5797;51.662;6.748;2022-09-12T11:34:28;5.78;;;4.57;;
11481;SDS011;5797;51.662;6.748;2022-09-12T11:37:07;5.53;;;4.28;;
11481;SDS011;5797;51.662;6.748;2022-09-12T11:39:50;7.10;;;4.55;;
11481;SDS011;5797;51.662;6.748;2022-09-12T11:42:22;6.63;;;4.68;;
11481;SDS011;5797;51.662;6.748;2022-09-12T11:44:55;6.15;;;5.00;;
11481;SDS011;5797;51.662;6.748;2022-09-12T11:47:28;9.45;;;5.90;;
11481;SDS011;5797;51.662;6.748;2022-09-12T11:50:00;8.15;;;5.65;;
11481;SDS011;5797;51.662;6.748;2022-09-12T11:52:32;7.78;;;5.72;;
11481;SDS011;5797;51.662;6.748;2022-09-12T11:55:05;7.60;;;5.97;;
11481;SDS011;5797;51.662;6.748;2022-09-12T11:57:38;8.38;;;5.10;;
11481;SDS011;5797;51.662;6.748;2022-09-12T12:00:13;7.13;;;4.88;;
11481;SDS011;5797;51.662;6.748;2022-09-12T12:02:49;6.22;;;4.57;;
11481;SDS011;5797;51.662;6.748;2022-09-12T12:05:24;7.97;;;5.05;;
11481;SDS011;5797;51.662;6.748;2022-09-12T12:07:54;5.90;;;4.40;;
11481;SDS011;5797;51.662;6.748;2022-09-12T12:10:24;6.90;;;4.50;;
11481;SDS011;5797;51.662;6.748;2022-09-12T12:12:56;7.57;;;4.80;;
11481;SDS011;5797;51.662;6.748;2022-09-12T12:15:25;7.18;;;4.93;;
11481;SDS011;5797;51.662;6.748;2022-09-12T12:18:03;5.63;;;4.38;;
11481;SDS011;5797;51.662;6.748;2022-09-12T12:20:32;5.95;;;4.13;;
11481;SDS011;5797;51.662;6.748;2022-09-12T12:23:02;6.90;;;4.97;;
11481;SDS011;5797;51.662;6.748;2022-09-12T12:25:40;10.07;;;4.68;;
11481;SDS011;5797;51.662;6.748;2022-09-12T12:31:23;5.82;;;5.18;;
11481;SDS011;5797;51.662;6.748;2022-09-12T12:33:54;7.25;;;6.22;;
11481;SDS011;5797;51.662;6.748;2022-09-12T12:36:30;6.55;;;5.05;;
11481;SDS011;5797;51.662;6.748;2022-09-12T12:51:38;9.30;;;5.30;;
11481;SDS011;5797;51.662;6.748;2022-09-12T12:54:31;5.25;;;4.75;;
11481;SDS011;5797;51.662;6.748;2022-09-12T12:57:02;5.90;;;4.82;;
11481;SDS011;5797;51.662;6.748;2022-09-12T12:59:32;10.15;;;4.60;;
11481;SDS011;5797;51.662;6.748;2022-09-12T13:02:00;6.00;;;4.88;;
11481;SDS011;5797;51.662;6.748;2022-09-12T13:04:32;5.25;;;4.68;;
11481;SDS011;5797;51.662;6.748;2022-09-12T13:07:23;7.07;;;4.93;;
11481;SDS011;5797;51.662;6.748;2022-09-12T13:09:56;4.43;;;4.03;;
11481;SDS011;5797;51.662;6.748;2022-09-12T13:12:25;3.83;;;3.53;;
11481;SDS011;5797;51.662;6.748;2022-09-12T13:14:55;4.55;;;4.05;;
11481;SDS011;5797;51.662;6.748;2022-09-12T13:17:26;6.15;;;4.00;;
11481;SDS011;5797;51.662;6.748;2022-09-12T13:22:54;4.72;;;3.92;;
11481;SDS011;5797;51.662;6.748;2022-09-12T13:25:27;11.60;;;4.05;;
11481;SDS011;5797;51.662;6.748;2022-09-12T13:28:00;4.32;;;4.03;;
11481;SDS011;5797;51.662;6.748;2022-09-12T13:30:30;4.45;;;3.92;;
11481;SDS011;5797;51.662;6.748;2022-09-12T13:33:04;4.07;;;3.65;;
11481;SDS011;5797;51.662;6.748;2022-09-12T13:35:42;4.15;;;3.75;;
11481;SDS011;5797;51.662;6.748;2022-09-12T13:38:18;5.60;;;3.70;;
11481;SDS011;5797;51.662;6.748;2022-09-12T13:40:53;5.38;;;4.13;;
11481;SDS011;5797;51.662;6.748;2022-09-12T13:43:29;5.53;;;3.42;;
11481;SDS011;5797;51.662;6.748;2022-09-12T13:46:31;3.85;;;3.47;;
11481;SDS011;5797;51.662;6.748;2022-09-12T13:49:00;4.50;;;4.10;;
11481;SDS011;5797;51.662;6.748;2022-09-12T13:51:35;3.83;;;3.53;;
11481;SDS011;5797;51.662;6.748;2022-09-12T13:54:03;4.65;;;3.25;;
11481;SDS011;5797;51.662;6.748;2022-09-12T13:56:32;4.22;;;3.75;;
11481;SDS011;5797;51.662;6.748;2022-09-12T13:59:00;3.97;;;3.55;;
11481;SDS011;5797;51.662;6.748;2022-09-12T14:01:36;4.70;;;3.42;;
11481;SDS011;5797;51.662;6.748;2022-09-12T14:04:30;4.35;;;3.58;;
11481;SDS011;5797;51.662;6.748;2022-09-12T14:07:17;3.63;;;3.10;;
11481;SDS011;5797;51.662;6.748;2022-09-12T14:09:51;3.20;;;3.00;;
11481;SDS011;5797;51.662;6.748;2022-09-12T14:12:22;6.57;;;3.47;;
11481;SDS011;5797;51.662;6.748;2022-09-12T14:14:51;5.90;;;3.58;;
11481;SDS011;5797;51.662;6.748;2022-09-12T14:17:22;3.88;;;3.38;;
11481;SDS011;5797;51.662;6.748;2022-09-12T14:19:52;3.78;;;2.92;;
11481;SDS011;5797;51.662;6.748;2022-09-12T14:22:22;3.97;;;2.92;;
11481;SDS011;5797;51.662;6.748;2022-09-12T14:24:52;3.50;;;3.08;;
11481;SDS011;5797;51.662;6.748;2022-09-12T14:27:21;3.38;;;3.08;;
11481;SDS011;5797;51.662;6.748;2022-09-12T14:29:51;4.47;;;3.30;;
11481;SDS011;5797;51.662;6.748;2022-09-12T14:32:23;3.92;;;2.95;;
11481;SDS011;5797;51.662;6.748;2022-09-12T14:35:04;4.90;;;3.42;;
11481;SDS011;5797;51.662;6.748;2022-09-12T14:37:35;4.13;;;3.30;;
11481;SDS011;5797;51.662;6.748;2022-09-12T14:40:11;5.25;;;2.95;;
11481;SDS011;5797;51.662;6.748;2022-09-12T14:42:42;6.55;;;3.10;;
11481;SDS011;5797;51.662;6.748;2022-09-12T14:45:12;4.05;;;3.28;;
11481;SDS011;5797;51.662;6.748;2022-09-12T14:47:44;3.13;;;2.90;;
11481;SDS011;5797;51.662;6.748;2022-09-12T14:50:16;4.55;;;3.53;;
11481;SDS011;5797;51.662;6.748;2022-09-12T14:52:46;7.45;;;3.72;;
11481;SDS011;5797;51.662;6.748;2022-09-12T14:55:29;4.20;;;3.75;;
11481;SDS011;5797;51.662;6.748;2022-09-12T14:58:15;3.72;;;3.42;;
11481;SDS011;5797;51.662;6.748;2022-09-12T15:00:58;4.03;;;3.40;;
11481;SDS011;5797;51.662;6.748;2022-09-12T15:03:28;3.45;;;3.15;;
11481;SDS011;5797;51.662;6.748;2022-09-12T15:05:57;3.90;;;3.60;;
11481;SDS011;5797;51.662;6.748;2022-09-12T15:08:27;4.15;;;3.47;;
11481;SDS011;5797;51.662;6.748;2022-09-12T15:10:55;4.65;;;3.50;;
11481;SDS011;5797;51.662;6.748;2022-09-12T15:13:24;4.82;;;3.88;;
11481;SDS011;5797;51.662;6.748;2022-09-12T15:15:53;6.78;;;3.90;;
11481;SDS011;5797;51.662;6.748;2022-09-12T15:18:22;6.45;;;4.35;;
11481;SDS011;5797;51.662;6.748;2022-09-12T15:20:52;5.20;;;3.78;;
11481;SDS011;5797;51.662;6.748;2022-09-12T15:23:26;4.82;;;3.65;;
11481;SDS011;5797;51.662;6.748;2022-09-12T15:25:58;5.15;;;3.85;;
11481;SDS011;5797;51.662;6.748;2022-09-12T15:28:39;5.80;;;4.03;;
11481;SDS011;5797;51.662;6.748;2022-09-12T15:31:09;3.70;;;3.30;;
11481;SDS011;5797;51.662;6.748;2022-09-12T15:33:39;5.15;;;3.80;;
11481;SDS011;5797;51.662;6.748;2022-09-12T15:36:11;4.93;;;3.40;;
11481;SDS011;5797;51.662;6.748;2022-09-12T15:38:43;5.15;;;3.78;;
11481;SDS011;5797;51.662;6.748;2022-09-12T15:41:12;7.38;;;3.70;;
11481;SDS011;5797;51.662;6.748;2022-09-12T15:43:41;7.25;;;3.58;;
11481;SDS011;5797;51.662;6.748;2022-09-12T15:46:09;8.40;;;3.63;;